Logan Peak - 24 Hour Table
Date & TimeSolar
Radiation
(W/m²)
Wind
Speed
(mph)
Wind
Direction
(degrees)
Air
Temperature
(°F)
Relative
Humidity
(%)
Barometeric
Pressure
(inHg)
2020/04/09 15:00 757 4.0 73 45.4 30 29.82
2020/04/09 14:00 842 7.7 74 41.3 31 29.83
2020/04/09 13:00 872 9.3 83 39.5 39 29.83
2020/04/09 12:00 846 8.7 83 40.1 37 29.83
2020/04/09 11:00 765 11.7 98 39.7 33 29.84
2020/04/09 10:00 635 15.2 108 39.3 34 29.84
2020/04/09 09:00 466 18.1 107 38.9 36 29.83
2020/04/09 08:00 273 18.6 98 38.7 38 29.83
2020/04/09 07:00 82 18.1 94 37.6 41 29.84
2020/04/09 06:00 1 24.5 100 35.0 41 29.83
2020/04/09 05:00 0 23.6 102 35.5 37 29.83
2020/04/09 04:00 0 24.1 100 35.8 30 29.86
2020/04/09 03:00 0 20.5 96 36.1 29 29.85
2020/04/09 02:00 0 23.3 98 36.5 33 29.88
2020/04/09 01:00 0 19.9 91 36.7 34 29.89
2020/04/09 00:00 0 17.3 95 37.2 26 29.87
2020/04/08 23:00 0 16.8 76 38.5 16 29.88
2020/04/08 22:00 0 13.5 76 37.9 19 29.88
2020/04/08 21:00 0 11.9 79 37.4 36 29.88
2020/04/08 20:00 0 13.8 64 37.0 47 29.87
2020/04/08 19:00 33 11.3 64 37.1 43 29.86
2020/04/08 18:00 194 6.8 56 39.8 57 29.86
2020/04/08 17:00 450 4.3 21 42.3 47 29.87
2020/04/08 16:00 624 6.3 355 41.3 55 29.88